sensor_id;sensor_type;location;lat;lon;timestamp;P1;durP1;ratioP1;P2;durP2;ratioP2
20482;SDS011;10400;53.198;6.592;2024-01-06T00:01:40;18.17;;;12.73;;
20482;SDS011;10400;53.198;6.592;2024-01-06T00:04:06;19.53;;;13.43;;
20482;SDS011;10400;53.198;6.592;2024-01-06T00:06:32;20.90;;;12.97;;
20482;SDS011;10400;53.198;6.592;2024-01-06T00:08:57;18.53;;;12.97;;
20482;SDS011;10400;53.198;6.592;2024-01-06T00:11:23;17.73;;;12.37;;
20482;SDS011;10400;53.198;6.592;2024-01-06T00:13:49;19.73;;;12.90;;
20482;SDS011;10400;53.198;6.592;2024-01-06T00:16:17;16.37;;;11.83;;
20482;SDS011;10400;53.198;6.592;2024-01-06T00:18:44;18.00;;;12.03;;
20482;SDS011;10400;53.198;6.592;2024-01-06T00:21:13;17.33;;;12.17;;
20482;SDS011;10400;53.198;6.592;2024-01-06T00:23:42;18.23;;;11.60;;
20482;SDS011;10400;53.198;6.592;2024-01-06T00:26:08;17.37;;;12.27;;
20482;SDS011;10400;53.198;6.592;2024-01-06T00:28:35;18.43;;;11.27;;
20482;SDS011;10400;53.198;6.592;2024-01-06T00:31:00;16.67;;;12.20;;
20482;SDS011;10400;53.198;6.592;2024-01-06T00:33:26;16.80;;;11.63;;
20482;SDS011;10400;53.198;6.592;2024-01-06T00:35:51;17.90;;;12.07;;
20482;SDS011;10400;53.198;6.592;2024-01-06T00:38:17;19.13;;;12.83;;
20482;SDS011;10400;53.198;6.592;2024-01-06T00:40:43;19.70;;;12.73;;
20482;SDS011;10400;53.198;6.592;2024-01-06T00:43:09;17.10;;;11.97;;
20482;SDS011;10400;53.198;6.592;2024-01-06T00:45:35;19.43;;;11.83;;
20482;SDS011;10400;53.198;6.592;2024-01-06T00:48:00;20.20;;;11.93;;
20482;SDS011;10400;53.198;6.592;2024-01-06T00:50:26;19.93;;;12.70;;
20482;SDS011;10400;53.198;6.592;2024-01-06T00:52:51;16.80;;;12.17;;
20482;SDS011;10400;53.198;6.592;2024-01-06T00:55:21;19.27;;;11.80;;
20482;SDS011;10400;53.198;6.592;2024-01-06T00:57:46;18.23;;;12.20;;
20482;SDS011;10400;53.198;6.592;2024-01-06T01:00:12;20.57;;;12.17;;
20482;SDS011;10400;53.198;6.592;2024-01-06T01:02:38;15.67;;;11.33;;
20482;SDS011;10400;53.198;6.592;2024-01-06T01:05:04;18.40;;;11.60;;
20482;SDS011;10400;53.198;6.592;2024-01-06T01:07:32;16.77;;;11.40;;
20482;SDS011;10400;53.198;6.592;2024-01-06T01:09:58;19.40;;;12.10;;
20482;SDS011;10400;53.198;6.592;2024-01-06T01:12:23;17.67;;;11.50;;
20482;SDS011;10400;53.198;6.592;2024-01-06T01:14:49;17.77;;;11.30;;
20482;SDS011;10400;53.198;6.592;2024-01-06T01:17:16;18.23;;;11.63;;
20482;SDS011;10400;53.198;6.592;2024-01-06T01:19:41;18.03;;;12.17;;
20482;SDS011;10400;53.198;6.592;2024-01-06T01:22:07;18.00;;;11.30;;
20482;SDS011;10400;53.198;6.592;2024-01-06T01:24:33;18.57;;;12.17;;
20482;SDS011;10400;53.198;6.592;2024-01-06T01:26:58;18.70;;;11.53;;
20482;SDS011;10400;53.198;6.592;2024-01-06T01:29:24;19.03;;;11.57;;
20482;SDS011;10400;53.198;6.592;2024-01-06T01:31:50;16.97;;;10.73;;
20482;SDS011;10400;53.198;6.592;2024-01-06T01:34:15;17.33;;;10.17;;
20482;SDS011;10400;53.198;6.592;2024-01-06T01:36:41;16.13;;;10.57;;
20482;SDS011;10400;53.198;6.592;2024-01-06T01:39:06;16.57;;;10.97;;
20482;SDS011;10400;53.198;6.592;2024-01-06T01:41:32;16.97;;;10.43;;
20482;SDS011;10400;53.198;6.592;2024-01-06T01:43:58;14.87;;;10.10;;
20482;SDS011;10400;53.198;6.592;2024-01-06T01:46:27;16.60;;;10.93;;
20482;SDS011;10400;53.198;6.592;2024-01-06T01:48:54;16.43;;;10.10;;
20482;SDS011;10400;53.198;6.592;2024-01-06T01:51:21;17.00;;;11.10;;
20482;SDS011;10400;53.198;6.592;2024-01-06T01:53:48;15.63;;;10.77;;
20482;SDS011;10400;53.198;6.592;2024-01-06T01:56:14;16.50;;;11.53;;
20482;SDS011;10400;53.198;6.592;2024-01-06T01:58:41;16.97;;;11.50;;
20482;SDS011;10400;53.198;6.592;2024-01-06T02:01:07;16.83;;;11.17;;
20482;SDS011;10400;53.198;6.592;2024-01-06T02:03:34;16.43;;;11.40;;
20482;SDS011;10400;53.198;6.592;2024-01-06T02:06:00;16.27;;;10.80;;
20482;SDS011;10400;53.198;6.592;2024-01-06T02:08:26;16.03;;;10.97;;
20482;SDS011;10400;53.198;6.592;2024-01-06T02:10:53;18.90;;;12.30;;
20482;SDS011;10400;53.198;6.592;2024-01-06T02:13:20;20.70;;;12.07;;
20482;SDS011;10400;53.198;6.592;2024-01-06T02:15:46;18.93;;;12.27;;
20482;SDS011;10400;53.198;6.592;2024-01-06T02:18:11;17.40;;;11.07;;
20482;SDS011;10400;53.198;6.592;2024-01-06T02:20:37;16.50;;;11.07;;
20482;SDS011;10400;53.198;6.592;2024-01-06T02:23:05;17.83;;;11.47;;
20482;SDS011;10400;53.198;6.592;2024-01-06T02:25:30;18.87;;;10.90;;
20482;SDS011;10400;53.198;6.592;2024-01-06T02:27:56;21.10;;;11.73;;
20482;SDS011;10400;53.198;6.592;2024-01-06T02:30:22;18.37;;;11.80;;
20482;SDS011;10400;53.198;6.592;2024-01-06T02:32:47;17.07;;;10.53;;
20482;SDS011;10400;53.198;6.592;2024-01-06T02:35:13;18.37;;;10.13;;
20482;SDS011;10400;53.198;6.592;2024-01-06T02:37:39;18.57;;;11.43;;
20482;SDS011;10400;53.198;6.592;2024-01-06T02:40:04;18.83;;;11.90;;
20482;SDS011;10400;53.198;6.592;2024-01-06T02:42:31;18.57;;;11.70;;
20482;SDS011;10400;53.198;6.592;2024-01-06T02:44:56;18.87;;;11.60;;
20482;SDS011;10400;53.198;6.592;2024-01-06T02:47:22;16.97;;;11.77;;
20482;SDS011;10400;53.198;6.592;2024-01-06T02:49:47;16.57;;;10.40;;
20482;SDS011;10400;53.198;6.592;2024-01-06T02:52:13;18.87;;;10.90;;
20482;SDS011;10400;53.198;6.592;2024-01-06T02:54:39;17.10;;;10.37;;
20482;SDS011;10400;53.198;6.592;2024-01-06T02:57:04;17.60;;;11.60;;
20482;SDS011;10400;53.198;6.592;2024-01-06T02:59:30;17.33;;;10.90;;
20482;SDS011;10400;53.198;6.592;2024-01-06T03:01:57;17.97;;;10.83;;
20482;SDS011;10400;53.198;6.592;2024-01-06T03:04:23;15.73;;;10.07;;
20482;SDS011;10400;53.198;6.592;2024-01-06T03:06:48;14.73;;;10.10;;
20482;SDS011;10400;53.198;6.592;2024-01-06T03:09:18;16.07;;;10.63;;
20482;SDS011;10400;53.198;6.592;2024-01-06T03:11:44;17.50;;;10.50;;
20482;SDS011;10400;53.198;6.592;2024-01-06T03:14:10;20.37;;;11.40;;
20482;SDS011;10400;53.198;6.592;2024-01-06T03:16:35;19.77;;;11.13;;
20482;SDS011;10400;53.198;6.592;2024-01-06T03:19:01;17.63;;;10.87;;
20482;SDS011;10400;53.198;6.592;2024-01-06T03:21:27;18.07;;;11.57;;
20482;SDS011;10400;53.198;6.592;2024-01-06T03:23:52;17.33;;;11.07;;
20482;SDS011;10400;53.198;6.592;2024-01-06T03:26:20;18.30;;;11.70;;
20482;SDS011;10400;53.198;6.592;2024-01-06T03:28:45;15.87;;;11.30;;
20482;SDS011;10400;53.198;6.592;2024-01-06T03:31:12;18.73;;;12.27;;
20482;SDS011;10400;53.198;6.592;2024-01-06T03:33:38;19.93;;;11.57;;
20482;SDS011;10400;53.198;6.592;2024-01-06T03:36:07;18.90;;;12.37;;
20482;SDS011;10400;53.198;6.592;2024-01-06T03:38:33;19.50;;;12.67;;
20482;SDS011;10400;53.198;6.592;2024-01-06T03:40:59;18.83;;;12.70;;
20482;SDS011;10400;53.198;6.592;2024-01-06T03:43:24;20.43;;;12.63;;
20482;SDS011;10400;53.198;6.592;2024-01-06T03:45:50;21.77;;;13.97;;
20482;SDS011;10400;53.198;6.592;2024-01-06T03:48:16;20.20;;;13.57;;
20482;SDS011;10400;53.198;6.592;2024-01-06T03:50:41;21.77;;;14.13;;
20482;SDS011;10400;53.198;6.592;2024-01-06T03:53:07;22.30;;;13.57;;
20482;SDS011;10400;53.198;6.592;2024-01-06T03:55:33;23.13;;;13.57;;
20482;SDS011;10400;53.198;6.592;2024-01-06T03:57:58;28.50;;;14.70;;
20482;SDS011;10400;53.198;6.592;2024-01-06T04:00:25;22.70;;;14.57;;
20482;SDS011;10400;53.198;6.592;2024-01-06T04:02:51;20.70;;;12.90;;
20482;SDS011;10400;53.198;6.592;2024-01-06T04:05:17;23.83;;;14.17;;
20482;SDS011;10400;53.198;6.592;2024-01-06T04:07:42;23.30;;;14.27;;
20482;SDS011;10400;53.198;6.592;2024-01-06T04:10:08;20.70;;;12.73;;
20482;SDS011;10400;53.198;6.592;2024-01-06T04:12:34;26.63;;;14.80;;
20482;SDS011;10400;53.198;6.592;2024-01-06T04:14:59;22.50;;;14.23;;
20482;SDS011;10400;53.198;6.592;2024-01-06T04:17:25;25.93;;;15.40;;
20482;SDS011;10400;53.198;6.592;2024-01-06T04:19:51;26.30;;;14.60;;
20482;SDS011;10400;53.198;6.592;2024-01-06T04:22:17;24.17;;;14.50;;
20482;SDS011;10400;53.198;6.592;2024-01-06T04:24:43;17.10;;;11.70;;
20482;SDS011;10400;53.198;6.592;2024-01-06T04:27:09;21.90;;;13.17;;
20482;SDS011;10400;53.198;6.592;2024-01-06T04:29:35;24.00;;;13.73;;
20482;SDS011;10400;53.198;6.592;2024-01-06T04:32:00;20.90;;;13.63;;
20482;SDS011;10400;53.198;6.592;2024-01-06T04:34:26;24.10;;;14.17;;
20482;SDS011;10400;53.198;6.592;2024-01-06T04:36:51;24.03;;;14.67;;
20482;SDS011;10400;53.198;6.592;2024-01-06T04:39:17;24.03;;;13.93;;
20482;SDS011;10400;53.198;6.592;2024-01-06T04:41:43;19.67;;;13.60;;
20482;SDS011;10400;53.198;6.592;2024-01-06T04:44:09;21.97;;;13.37;;
20482;SDS011;10400;53.198;6.592;2024-01-06T04:46:34;20.60;;;13.17;;
20482;SDS011;10400;53.198;6.592;2024-01-06T04:49:00;23.17;;;13.67;;
20482;SDS011;10400;53.198;6.592;2024-01-06T04:51:25;19.47;;;13.00;;
20482;SDS011;10400;53.198;6.592;2024-01-06T04:53:52;19.57;;;12.97;;
20482;SDS011;10400;53.198;6.592;2024-01-06T04:56:17;20.87;;;12.93;;
20482;SDS011;10400;53.198;6.592;2024-01-06T04:58:43;19.97;;;13.00;;
20482;SDS011;10400;53.198;6.592;2024-01-06T05:01:09;21.57;;;12.67;;
20482;SDS011;10400;53.198;6.592;2024-01-06T05:03:35;20.23;;;13.27;;
20482;SDS011;10400;53.198;6.592;2024-01-06T05:06:01;22.93;;;13.70;;
20482;SDS011;10400;53.198;6.592;2024-01-06T05:08:26;21.13;;;13.37;;
20482;SDS011;10400;53.198;6.592;2024-01-06T05:10:52;22.17;;;13.33;;
20482;SDS011;10400;53.198;6.592;2024-01-06T05:13:19;20.90;;;13.53;;
20482;SDS011;10400;53.198;6.592;2024-01-06T05:15:44;19.27;;;12.50;;
20482;SDS011;10400;53.198;6.592;2024-01-06T05:18:10;20.57;;;12.87;;
20482;SDS011;10400;53.198;6.592;2024-01-06T05:20:35;18.73;;;12.50;;
20482;SDS011;10400;53.198;6.592;2024-01-06T05:23:01;20.03;;;12.60;;
20482;SDS011;10400;53.198;6.592;2024-01-06T05:25:27;16.67;;;11.43;;
20482;SDS011;10400;53.198;6.592;2024-01-06T05:27:52;17.37;;;11.07;;
20482;SDS011;10400;53.198;6.592;2024-01-06T05:30:18;19.17;;;12.53;;
20482;SDS011;10400;53.198;6.592;2024-01-06T05:32:43;17.13;;;12.33;;
20482;SDS011;10400;53.198;6.592;2024-01-06T05:35:10;19.73;;;11.40;;
20482;SDS011;10400;53.198;6.592;2024-01-06T05:37:36;19.07;;;11.47;;
20482;SDS011;10400;53.198;6.592;2024-01-06T05:40:02;17.00;;;12.00;;
20482;SDS011;10400;53.198;6.592;2024-01-06T05:42:29;18.23;;;10.93;;
20482;SDS011;10400;53.198;6.592;2024-01-06T05:44:55;18.27;;;11.17;;
20482;SDS011;10400;53.198;6.592;2024-01-06T05:47:20;17.67;;;10.97;;
20482;SDS011;10400;53.198;6.592;2024-01-06T05:49:46;15.20;;;10.33;;
20482;SDS011;10400;53.198;6.592;2024-01-06T05:52:12;16.93;;;9.83;;
20482;SDS011;10400;53.198;6.592;2024-01-06T05:54:41;18.30;;;10.80;;
20482;SDS011;10400;53.198;6.592;2024-01-06T05:57:07;19.80;;;11.40;;
20482;SDS011;10400;53.198;6.592;2024-01-06T05:59:33;16.17;;;10.80;;
20482;SDS011;10400;53.198;6.592;2024-01-06T06:01:59;15.57;;;10.40;;
20482;SDS011;10400;53.198;6.592;2024-01-06T06:04:25;15.03;;;10.40;;
20482;SDS011;10400;53.198;6.592;2024-01-06T06:06:51;18.43;;;11.40;;
20482;SDS011;10400;53.198;6.592;2024-01-06T06:09:16;14.63;;;10.90;;
20482;SDS011;10400;53.198;6.592;2024-01-06T06:11:42;15.00;;;10.87;;
20482;SDS011;10400;53.198;6.592;2024-01-06T06:14:08;20.70;;;11.10;;
20482;SDS011;10400;53.198;6.592;2024-01-06T06:16:34;18.57;;;11.70;;
20482;SDS011;10400;53.198;6.592;2024-01-06T06:18:59;18.97;;;11.07;;
20482;SDS011;10400;53.198;6.592;2024-01-06T06:21:25;20.93;;;11.17;;
20482;SDS011;10400;53.198;6.592;2024-01-06T06:23:51;15.13;;;11.13;;
20482;SDS011;10400;53.198;6.592;2024-01-06T06:26:16;18.30;;;12.13;;
20482;SDS011;10400;53.198;6.592;2024-01-06T06:28:42;15.40;;;10.77;;
20482;SDS011;10400;53.198;6.592;2024-01-06T06:31:08;18.73;;;11.43;;
20482;SDS011;10400;53.198;6.592;2024-01-06T06:33:34;17.73;;;11.27;;
20482;SDS011;10400;53.198;6.592;2024-01-06T06:35:59;16.97;;;12.07;;
20482;SDS011;10400;53.198;6.592;2024-01-06T06:38:26;19.30;;;11.40;;
20482;SDS011;10400;53.198;6.592;2024-01-06T06:40:52;18.93;;;12.63;;
20482;SDS011;10400;53.198;6.592;2024-01-06T06:43:18;18.43;;;11.73;;
20482;SDS011;10400;53.198;6.592;2024-01-06T06:45:44;16.30;;;11.77;;
20482;SDS011;10400;53.198;6.592;2024-01-06T06:48:09;16.67;;;11.73;;
20482;SDS011;10400;53.198;6.592;2024-01-06T06:50:35;18.40;;;11.60;;
20482;SDS011;10400;53.198;6.592;2024-01-06T06:53:01;18.67;;;11.97;;
20482;SDS011;10400;53.198;6.592;2024-01-06T06:55:27;19.17;;;12.17;;
20482;SDS011;10400;53.198;6.592;2024-01-06T06:57:53;16.30;;;11.63;;
20482;SDS011;10400;53.198;6.592;2024-01-06T07:00:18;15.47;;;10.80;;
20482;SDS011;10400;53.198;6.592;2024-01-06T07:02:44;18.83;;;12.87;;
20482;SDS011;10400;53.198;6.592;2024-01-06T07:05:10;18.83;;;12.30;;
20482;SDS011;10400;53.198;6.592;2024-01-06T07:07:36;21.43;;;13.43;;
20482;SDS011;10400;53.198;6.592;2024-01-06T07:10:03;17.97;;;12.43;;
20482;SDS011;10400;53.198;6.592;2024-01-06T07:12:30;20.63;;;13.53;;
20482;SDS011;10400;53.198;6.592;2024-01-06T07:14:58;18.50;;;12.87;;
20482;SDS011;10400;53.198;6.592;2024-01-06T07:17:24;26.03;;;14.30;;
20482;SDS011;10400;53.198;6.592;2024-01-06T07:19:50;22.10;;;14.43;;
20482;SDS011;10400;53.198;6.592;2024-01-06T07:22:16;20.83;;;13.90;;
20482;SDS011;10400;53.198;6.592;2024-01-06T07:24:43;22.23;;;14.73;;
20482;SDS011;10400;53.198;6.592;2024-01-06T07:27:09;19.90;;;14.27;;
20482;SDS011;10400;53.198;6.592;2024-01-06T07:29:35;24.67;;;15.57;;
20482;SDS011;10400;53.198;6.592;2024-01-06T07:32:00;22.23;;;14.80;;
20482;SDS011;10400;53.198;6.592;2024-01-06T07:34:26;20.67;;;14.10;;
20482;SDS011;10400;53.198;6.592;2024-01-06T07:36:52;22.53;;;15.07;;
20482;SDS011;10400;53.198;6.592;2024-01-06T07:39:18;26.50;;;17.03;;
20482;SDS011;10400;53.198;6.592;2024-01-06T07:41:43;28.23;;;16.53;;
20482;SDS011;10400;53.198;6.592;2024-01-06T07:44:11;25.27;;;16.77;;
20482;SDS011;10400;53.198;6.592;2024-01-06T07:46:38;28.00;;;17.23;;
20482;SDS011;10400;53.198;6.592;2024-01-06T07:49:05;25.53;;;17.03;;
20482;SDS011;10400;53.198;6.592;2024-01-06T07:51:31;26.20;;;17.30;;
20482;SDS011;10400;53.198;6.592;2024-01-06T07:53:57;27.67;;;17.67;;
20482;SDS011;10400;53.198;6.592;2024-01-06T07:56:23;28.80;;;18.07;;
20482;SDS011;10400;53.198;6.592;2024-01-06T07:58:49;27.50;;;17.47;;
20482;SDS011;10400;53.198;6.592;2024-01-06T08:01:15;27.43;;;17.20;;
20482;SDS011;10400;53.198;6.592;2024-01-06T08:03:40;28.60;;;18.77;;
20482;SDS011;10400;53.198;6.592;2024-01-06T08:06:06;29.67;;;17.30;;
20482;SDS011;10400;53.198;6.592;2024-01-06T08:08:31;30.23;;;18.17;;
20482;SDS011;10400;53.198;6.592;2024-01-06T08:10:57;26.90;;;17.70;;
20482;SDS011;10400;53.198;6.592;2024-01-06T08:13:23;29.77;;;17.70;;
20482;SDS011;10400;53.198;6.592;2024-01-06T08:15:48;29.23;;;17.33;;
20482;SDS011;10400;53.198;6.592;2024-01-06T08:18:14;25.17;;;16.43;;
20482;SDS011;10400;53.198;6.592;2024-01-06T08:20:40;25.33;;;16.97;;
20482;SDS011;10400;53.198;6.592;2024-01-06T08:23:05;27.37;;;17.50;;
20482;SDS011;10400;53.198;6.592;2024-01-06T08:25:31;25.50;;;16.20;;
20482;SDS011;10400;53.198;6.592;2024-01-06T08:27:56;26.33;;;17.17;;
20482;SDS011;10400;53.198;6.592;2024-01-06T08:30:22;25.70;;;16.67;;
20482;SDS011;10400;53.198;6.592;2024-01-06T08:32:48;23.23;;;15.57;;
20482;SDS011;10400;53.198;6.592;2024-01-06T08:35:14;25.20;;;16.03;;
20482;SDS011;10400;53.198;6.592;2024-01-06T08:37:41;27.57;;;16.37;;
20482;SDS011;10400;53.198;6.592;2024-01-06T08:40:08;26.80;;;16.23;;
20482;SDS011;10400;53.198;6.592;2024-01-06T08:42:34;26.90;;;16.17;;
20482;SDS011;10400;53.198;6.592;2024-01-06T08:45:00;25.20;;;17.40;;
20482;SDS011;10400;53.198;6.592;2024-01-06T08:47:25;26.53;;;17.70;;
20482;SDS011;10400;53.198;6.592;2024-01-06T08:49:51;26.47;;;17.70;;
20482;SDS011;10400;53.198;6.592;2024-01-06T08:52:17;26.87;;;16.80;;
20482;SDS011;10400;53.198;6.592;2024-01-06T08:54:42;26.10;;;17.20;;
20482;SDS011;10400;53.198;6.592;2024-01-06T08:57:08;26.80;;;17.00;;
20482;SDS011;10400;53.198;6.592;2024-01-06T08:59:33;27.30;;;16.87;;
20482;SDS011;10400;53.198;6.592;2024-01-06T09:01:59;25.90;;;16.90;;
20482;SDS011;10400;53.198;6.592;2024-01-06T09:04:26;22.70;;;15.57;;
20482;SDS011;10400;53.198;6.592;2024-01-06T09:06:51;29.47;;;17.00;;
20482;SDS011;10400;53.198;6.592;2024-01-06T09:09:17;24.97;;;16.07;;
20482;SDS011;10400;53.198;6.592;2024-01-06T09:11:43;22.37;;;15.77;;
20482;SDS011;10400;53.198;6.592;2024-01-06T09:14:09;24.80;;;16.10;;
20482;SDS011;10400;53.198;6.592;2024-01-06T09:16:38;24.93;;;15.70;;
20482;SDS011;10400;53.198;6.592;2024-01-06T09:19:04;26.03;;;16.07;;
20482;SDS011;10400;53.198;6.592;2024-01-06T09:21:29;22.37;;;15.20;;
20482;SDS011;10400;53.198;6.592;2024-01-06T09:23:55;24.10;;;15.63;;
20482;SDS011;10400;53.198;6.592;2024-01-06T09:26:21;22.73;;;15.40;;
20482;SDS011;10400;53.198;6.592;2024-01-06T09:28:47;24.57;;;15.77;;
20482;SDS011;10400;53.198;6.592;2024-01-06T09:31:12;23.67;;;15.37;;
20482;SDS011;10400;53.198;6.592;2024-01-06T09:33:38;22.47;;;15.37;;
20482;SDS011;10400;53.198;6.592;2024-01-06T09:36:04;22.20;;;14.27;;
20482;SDS011;10400;53.198;6.592;2024-01-06T09:38:30;22.37;;;14.57;;
20482;SDS011;10400;53.198;6.592;2024-01-06T09:40:56;21.83;;;13.70;;
20482;SDS011;10400;53.198;6.592;2024-01-06T09:43:23;21.33;;;14.47;;
20482;SDS011;10400;53.198;6.592;2024-01-06T09:45:51;23.67;;;14.93;;
20482;SDS011;10400;53.198;6.592;2024-01-06T09:48:23;26.50;;;14.90;;
20482;SDS011;10400;53.198;6.592;2024-01-06T09:50:56;22.17;;;14.27;;
20482;SDS011;10400;53.198;6.592;2024-01-06T09:53:26;23.90;;;14.57;;
20482;SDS011;10400;53.198;6.592;2024-01-06T09:55:58;22.07;;;14.60;;
20482;SDS011;10400;53.198;6.592;2024-01-06T09:58:24;23.33;;;15.77;;
20482;SDS011;10400;53.198;6.592;2024-01-06T10:00:55;23.10;;;15.03;;
20482;SDS011;10400;53.198;6.592;2024-01-06T10:03:21;23.23;;;15.70;;
20482;SDS011;10400;53.198;6.592;2024-01-06T10:05:46;22.27;;;14.57;;
20482;SDS011;10400;53.198;6.592;2024-01-06T10:08:13;22.87;;;14.57;;
20482;SDS011;10400;53.198;6.592;2024-01-06T10:10:39;22.17;;;14.03;;
20482;SDS011;10400;53.198;6.592;2024-01-06T10:13:04;21.80;;;14.23;;
20482;SDS011;10400;53.198;6.592;2024-01-06T10:15:31;23.93;;;14.63;;
20482;SDS011;10400;53.198;6.592;2024-01-06T10:17:57;22.23;;;14.97;;
20482;SDS011;10400;53.198;6.592;2024-01-06T10:20:23;22.23;;;14.93;;
20482;SDS011;10400;53.198;6.592;2024-01-06T10:22:50;23.17;;;14.93;;
20482;SDS011;10400;53.198;6.592;2024-01-06T10:25:17;23.13;;;15.07;;
20482;SDS011;10400;53.198;6.592;2024-01-06T10:27:43;21.20;;;15.13;;
20482;SDS011;10400;53.198;6.592;2024-01-06T10:30:09;21.03;;;14.63;;
20482;SDS011;10400;53.198;6.592;2024-01-06T10:32:35;23.53;;;14.93;;
20482;SDS011;10400;53.198;6.592;2024-01-06T10:35:01;21.23;;;14.47;;
20482;SDS011;10400;53.198;6.592;2024-01-06T10:37:28;23.50;;;13.87;;
20482;SDS011;10400;53.198;6.592;2024-01-06T10:40:13;22.10;;;13.47;;
20482;SDS011;10400;53.198;6.592;2024-01-06T10:42:42;22.33;;;14.00;;
20482;SDS011;10400;53.198;6.592;2024-01-06T10:45:09;19.33;;;12.87;;
20482;SDS011;10400;53.198;6.592;2024-01-06T10:47:37;17.90;;;12.40;;
20482;SDS011;10400;53.198;6.592;2024-01-06T10:50:03;16.47;;;11.77;;
20482;SDS011;10400;53.198;6.592;2024-01-06T10:52:30;18.23;;;11.20;;
20482;SDS011;10400;53.198;6.592;2024-01-06T10:54:56;18.27;;;12.20;;
20482;SDS011;10400;53.198;6.592;2024-01-06T10:57:23;18.57;;;10.73;;
20482;SDS011;10400;53.198;6.592;2024-01-06T10:59:49;17.27;;;10.90;;
20482;SDS011;10400;53.198;6.592;2024-01-06T11:02:17;14.70;;;10.07;;
20482;SDS011;10400;53.198;6.592;2024-01-06T11:04:47;16.47;;;10.10;;
20482;SDS011;10400;53.198;6.592;2024-01-06T11:07:14;17.93;;;10.33;;
20482;SDS011;10400;53.198;6.592;2024-01-06T11:09:47;14.83;;;10.07;;
20482;SDS011;10400;53.198;6.592;2024-01-06T11:12:17;14.60;;;10.20;;
20482;SDS011;10400;53.198;6.592;2024-01-06T11:14:43;16.33;;;10.27;;
20482;SDS011;10400;53.198;6.592;2024-01-06T11:17:10;16.63;;;11.10;;
20482;SDS011;10400;53.198;6.592;2024-01-06T11:25:08;18.20;;;10.87;;
20482;SDS011;10400;53.198;6.592;2024-01-06T11:27:38;16.37;;;10.93;;
20482;SDS011;10400;53.198;6.592;2024-01-06T11:30:04;18.47;;;10.97;;
20482;SDS011;10400;53.198;6.592;2024-01-06T11:32:31;16.80;;;11.60;;
20482;SDS011;10400;53.198;6.592;2024-01-06T11:35:10;16.13;;;10.70;;
20482;SDS011;10400;53.198;6.592;2024-01-06T11:42:40;14.13;;;8.97;;
20482;SDS011;10400;53.198;6.592;2024-01-06T11:45:07;12.33;;;9.07;;
20482;SDS011;10400;53.198;6.592;2024-01-06T11:47:33;14.47;;;9.00;;
20482;SDS011;10400;53.198;6.592;2024-01-06T11:49:59;13.17;;;8.60;;
20482;SDS011;10400;53.198;6.592;2024-01-06T11:52:29;11.20;;;8.23;;
20482;SDS011;10400;53.198;6.592;2024-01-06T11:54:58;13.30;;;8.80;;
20482;SDS011;10400;53.198;6.592;2024-01-06T11:57:25;11.50;;;8.20;;
20482;SDS011;10400;53.198;6.592;2024-01-06T11:59:52;11.53;;;8.20;;
20482;SDS011;10400;53.198;6.592;2024-01-06T12:02:18;11.10;;;8.20;;
20482;SDS011;10400;53.198;6.592;2024-01-06T12:04:50;12.07;;;8.23;;
20482;SDS011;10400;53.198;6.592;2024-01-06T12:07:17;12.10;;;8.63;;
20482;SDS011;10400;53.198;6.592;2024-01-06T12:09:44;15.77;;;8.07;;
20482;SDS011;10400;53.198;6.592;2024-01-06T12:12:11;12.10;;;7.93;;
20482;SDS011;10400;53.198;6.592;2024-01-06T12:14:41;11.10;;;7.70;;
20482;SDS011;10400;53.198;6.592;2024-01-06T12:17:07;12.97;;;7.97;;
20482;SDS011;10400;53.198;6.592;2024-01-06T12:19:33;12.33;;;8.63;;
20482;SDS011;10400;53.198;6.592;2024-01-06T12:21:59;12.20;;;8.23;;
20482;SDS011;10400;53.198;6.592;2024-01-06T12:24:29;13.97;;;8.83;;
20482;SDS011;10400;53.198;6.592;2024-01-06T12:26:55;14.37;;;8.43;;
20482;SDS011;10400;53.198;6.592;2024-01-06T12:29:22;13.80;;;8.77;;
20482;SDS011;10400;53.198;6.592;2024-01-06T12:31:51;10.87;;;7.93;;
20482;SDS011;10400;53.198;6.592;2024-01-06T12:34:17;12.97;;;8.67;;
20482;SDS011;10400;53.198;6.592;2024-01-06T12:36:43;13.03;;;8.57;;
20482;SDS011;10400;53.198;6.592;2024-01-06T12:39:12;13.17;;;8.27;;
20482;SDS011;10400;53.198;6.592;2024-01-06T12:41:40;13.20;;;8.40;;
20482;SDS011;10400;53.198;6.592;2024-01-06T12:44:06;12.00;;;8.53;;
20482;SDS011;10400;53.198;6.592;2024-01-06T12:46:32;12.37;;;7.90;;
20482;SDS011;10400;53.198;6.592;2024-01-06T12:48:58;11.23;;;8.27;;
20482;SDS011;10400;53.198;6.592;2024-01-06T12:51:24;12.50;;;8.73;;
20482;SDS011;10400;53.198;6.592;2024-01-06T12:53:50;11.60;;;8.37;;
20482;SDS011;10400;53.198;6.592;2024-01-06T12:56:16;11.83;;;8.00;;
20482;SDS011;10400;53.198;6.592;2024-01-06T12:58:42;12.43;;;8.73;;
20482;SDS011;10400;53.198;6.592;2024-01-06T13:01:08;12.80;;;8.30;;
20482;SDS011;10400;53.198;6.592;2024-01-06T13:03:34;12.43;;;8.70;;
20482;SDS011;10400;53.198;6.592;2024-01-06T13:06:00;11.97;;;8.67;;
20482;SDS011;10400;53.198;6.592;2024-01-06T13:08:27;11.73;;;8.10;;
20482;SDS011;10400;53.198;6.592;2024-01-06T13:10:53;12.50;;;8.57;;
20482;SDS011;10400;53.198;6.592;2024-01-06T13:13:19;11.50;;;8.27;;
20482;SDS011;10400;53.198;6.592;2024-01-06T13:15:45;11.40;;;8.37;;
20482;SDS011;10400;53.198;6.592;2024-01-06T13:18:11;11.73;;;8.00;;
20482;SDS011;10400;53.198;6.592;2024-01-06T13:20:37;11.63;;;7.73;;
20482;SDS011;10400;53.198;6.592;2024-01-06T13:23:07;11.17;;;7.63;;
20482;SDS011;10400;53.198;6.592;2024-01-06T13:25:33;12.00;;;8.30;;
20482;SDS011;10400;53.198;6.592;2024-01-06T13:27:59;14.00;;;7.83;;
20482;SDS011;10400;53.198;6.592;2024-01-06T13:30:25;13.10;;;8.80;;
20482;SDS011;10400;53.198;6.592;2024-01-06T13:32:51;11.50;;;8.47;;
20482;SDS011;10400;53.198;6.592;2024-01-06T13:35:19;11.10;;;8.17;;
20482;SDS011;10400;53.198;6.592;2024-01-06T13:37:45;11.40;;;8.27;;
20482;SDS011;10400;53.198;6.592;2024-01-06T13:40:13;11.93;;;8.17;;
20482;SDS011;10400;53.198;6.592;2024-01-06T13:42:39;11.67;;;8.27;;
20482;SDS011;10400;53.198;6.592;2024-01-06T13:45:05;11.33;;;7.87;;
20482;SDS011;10400;53.198;6.592;2024-01-06T13:47:31;13.70;;;8.63;;
20482;SDS011;10400;53.198;6.592;2024-01-06T13:49:57;10.73;;;8.00;;
20482;SDS011;10400;53.198;6.592;2024-01-06T13:52:23;11.37;;;8.20;;
20482;SDS011;10400;53.198;6.592;2024-01-06T13:54:49;15.17;;;8.57;;
20482;SDS011;10400;53.198;6.592;2024-01-06T13:57:15;11.43;;;8.33;;
20482;SDS011;10400;53.198;6.592;2024-01-06T13:59:41;10.07;;;7.73;;
20482;SDS011;10400;53.198;6.592;2024-01-06T14:02:08;14.73;;;8.30;;
20482;SDS011;10400;53.198;6.592;2024-01-06T14:04:34;13.70;;;9.00;;
20482;SDS011;10400;53.198;6.592;2024-01-06T14:07:00;11.27;;;7.50;;
20482;SDS011;10400;53.198;6.592;2024-01-06T14:09:27;10.53;;;7.40;;
20482;SDS011;10400;53.198;6.592;2024-01-06T14:11:53;12.03;;;7.67;;
20482;SDS011;10400;53.198;6.592;2024-01-06T14:14:19;10.47;;;7.80;;
20482;SDS011;10400;53.198;6.592;2024-01-06T14:16:45;12.20;;;8.27;;
20482;SDS011;10400;53.198;6.592;2024-01-06T14:19:12;12.47;;;8.10;;
20482;SDS011;10400;53.198;6.592;2024-01-06T14:21:39;11.80;;;7.50;;
20482;SDS011;10400;53.198;6.592;2024-01-06T14:24:05;10.10;;;7.90;;
20482;SDS011;10400;53.198;6.592;2024-01-06T14:26:32;10.27;;;7.17;;
20482;SDS011;10400;53.198;6.592;2024-01-06T14:28:58;11.80;;;7.80;;